»·PEaware :: N232KW KSNA-KWHP

N232KW :: KSNA-KWHP

FLIGHT INFORMATION

Flight Status: Arrived
Operator: Privately registered:
United States
More flights under this callsign
Pilot: Sally S. (18014)
Aircraft: CESSNA 172 SKYHAWK
(C172)
More flights by this aircraft type
Origin: KSNA John Wayne-Orange Co
United States
Destination: KWHP Whiteman
United States
More flights between these airports :: More routes between these airports
Route: +
File this flight plan on PilotEdge
Remarks:
Altitude:
(Current/Filed)
3,500ft
Speed:
(Current/Filed)
0kts
Departed: 11-Feb-18 01:23 PM
Arrived: 11-Feb-18 01:58 PM
Distance/Time
Traveled:
45nm/0:35
Distance/Time
To Go:
Arrived

Flight Plot

Page will automatically refresh every two minutes.


Map Options




Map Legend


Flown Route
Filed Route
Departure Airport
Arrival Airport
Navaid (VOR, NDB)
Fix

Horizontal Profiles

Position Reports

Time Latitude Longitude Heading Altitude Ground
Speed
11-Feb-18 13:17 33.671521 -117.867198 26 60ft 0kts
11-Feb-18 13:18 33.671521 -117.867198 26 60ft 0kts
11-Feb-18 13:19 33.671588 -117.867155 25 60ft 0kts
11-Feb-18 13:20 33.671588 -117.867155 25 60ft 0kts
11-Feb-18 13:21 33.671588 -117.867155 25 60ft 0kts
11-Feb-18 13:22 33.671587 -117.867155 25 60ft 0kts
11-Feb-18 13:23 33.671588 -117.867155 25 60ft 0kts
11-Feb-18 13:24 33.671588 -117.867155 25 60ft 0kts
11-Feb-18 13:25 33.671848 -117.867168 310 60ft 10kts
11-Feb-18 13:26 33.674751 -117.866684 26 60ft 14kts
11-Feb-18 13:27 33.679099 -117.863925 27 60ft 17kts
11-Feb-18 13:28 33.679940 -117.863648 294 60ft 0kts
11-Feb-18 13:29 33.680007 -117.864190 228 60ft 9kts
11-Feb-18 13:30 33.665772 -117.874144 218 708ft 67kts
11-Feb-18 13:31 33.673621 -117.889808 341 1552ft 75kts
11-Feb-18 13:32 33.693937 -117.896624 341 2360ft 79kts
11-Feb-18 13:33 33.720237 -117.905461 342 2399ft 95kts
11-Feb-18 13:34 33.744572 -117.913490 342 2399ft 88kts
11-Feb-18 13:35 33.770440 -117.912543 11 2501ft 111kts
11-Feb-18 13:36 33.799988 -117.904980 9 2497ft 106kts
11-Feb-18 13:37 33.828430 -117.898116 9 2496ft 103kts
11-Feb-18 13:38 33.854528 -117.907197 334 2494ft 95kts
11-Feb-18 13:39 33.877763 -117.919806 333 2493ft 90kts
11-Feb-18 13:40 33.900239 -117.932124 334 2491ft 88kts
11-Feb-18 13:41 33.922352 -117.944282 334 2490ft 85kts
11-Feb-18 13:42 33.945053 -117.956802 334 2494ft 92kts
11-Feb-18 13:43 33.968660 -117.969866 334 2498ft 94kts
11-Feb-18 13:44 33.992581 -117.983099 334 2501ft 94kts
11-Feb-18 13:45 34.016518 -117.996307 335 2504ft 95kts
11-Feb-18 13:46 34.024385 -118.000482 90 2335ft 105kts
11-Feb-18 13:47 34.015800 -117.969501 115 2294ft 97kts
11-Feb-18 13:48 34.008416 -117.971087 11 2369ft 95kts
11-Feb-18 13:49 34.033533 -117.975905 319 2533ft 113kts
11-Feb-18 13:50 34.057078 -118.002010 317 2533ft 114kts
11-Feb-18 13:51 34.079598 -118.027404 317 2535ft 109kts
11-Feb-18 13:52 34.093395 -118.059310 290 2533ft 108kts
11-Feb-18 13:53 34.103335 -118.092345 290 2531ft 107kts
11-Feb-18 13:54 34.113176 -118.125275 290 2565ft 104kts
11-Feb-18 13:55 34.123019 -118.158259 290 2563ft 104kts
11-Feb-18 13:56 34.132847 -118.191214 290 2560ft 105kts
11-Feb-18 13:57 34.142779 -118.224566 290 2558ft 105kts
11-Feb-18 13:58 34.156052 -118.255687 309 2555ft 104kts
11-Feb-18 13:59 34.174160 -118.283336 309 2553ft 105kts
11-Feb-18 14:00 34.191351 -118.309518 309 2551ft 96kts
11-Feb-18 14:01 34.207792 -118.334601 309 2550ft 94kts
11-Feb-18 14:02 34.224160 -118.359571 310 2549ft 94kts
11-Feb-18 14:03 34.239807 -118.385312 283 1990ft 97kts
11-Feb-18 14:04 34.252958 -118.406789 320 1138ft 74kts
11-Feb-18 14:05 34.260799 -118.414616 359 1004ft 0kts
11-Feb-18 14:06 34.263036 -118.416438 27 1004ft 9kts
11-Feb-18 14:07 34.263095 -118.416131 133 1004ft 0kts
11-Feb-18 14:08 34.263095 -118.416131 133 1004ft 0kts
11-Feb-18 14:09 34.263095 -118.416131 133 1004ft 0kts
11-Feb-18 14:10 34.263095 -118.416131 133 1004ft 0kts
11-Feb-18 14:11 34.263095 -118.416131 133 1004ft 0kts
11-Feb-18 14:12 34.263095 -118.416131 133 1004ft 0kts
11-Feb-18 14:13 34.263095 -118.416131 133 1004ft 0kts
11-Feb-18 14:14 34.263095 -118.416131 133 1004ft 0kts
11-Feb-18 14:15 34.263095 -118.416131 133 1004ft 0kts
11-Feb-18 14:16 34.263095 -118.416131 133 1004ft 0kts
11-Feb-18 14:17 34.263095 -118.416131 133 1004ft 0kts
11-Feb-18 14:18 34.263095 -118.416131 133 1004ft 0kts
11-Feb-18 14:19 34.263095 -118.416131 133 1004ft 0kts

Navigation Log

Ident Type
1. KSNA Airport
2. KWHP Airport